San Diego, California
Traffic Map
Current Weather Conditions
San Diego, California
Clear
Clear
24°
Feels Like: 24°
Wind Chill: 24° Ceiling: Unl
Heat Index: 24° Visibility: 9mi
Dew Point: 22° Wind: 7mph
Humidity: 85% Direction: 330° (NNW)
Pressure: 29.8in Gusts: 0mph
Raw Report DataKSAN 160651Z 33006KT 9SM CLR 24/22 A2980 RMK AO2 SLP090 T02440217
Traffic Incident Summary
Active as of:
Severity:
Category:
InformationThere was an issue retrieving the traffic information for this location. Please try a different location or try again shortly.
Advertisements
Track Severe Weather on mobile